Accomac, Virginia
Current Conditions -  °F | °C
As of 12:15 AM on Thursday 23 Oct 2014 (Local Time) from KMFV Reporting Station
Overcast Overcast  
Wind Chill: 55°   Ceiling: 2300
Heat Index: 55°   Visibility: 10mi
Dew Point: 46°   Wind: 16mph
Humidity: 72%   Direction: 340°NNW
Pressure: 29.84"   Gusts: 29mph
Location:  37.72°N, 75.67°W
Report Text: KMFV 230415Z AUTO 34014G25KT 310V010 10SM OVC023 13/08 A2984 RMK AO2
Loading
Personal Weather Stations






























Interactive Weather Map
Tropical Storm Tracking
New forecast layout! Learn more

10-Day Weather Forecast

Advertisements
Track Severe Weather on mobile